EWG42A ENGM-EDDH
Flight info
| Callsign | EWG42A |
|---|---|
| Flight time | 1h 13m |
| Altitude | 35000 |
| Route | VIPPA DCT AAL DCT LUTUS/N0445F360 P615 ALS M852 ALASA/N0450F370 M852 EKERN/N0383F230 T905 BOGMU BOGMU5A |
| Aircraft | A21N/M-SDE3FGHIRWY/LB1 |
Departure
| Time | 2026-05-07 18:12 |
|---|---|
| Airport | Oslo-Gardermoen International Airport (ENGM) |
Arrival
| Time | 2026-05-07 19:26 |
|---|---|
| Airport | Hamburg Helmut Schmidt Airport (EDDH) |
| Time | Latitude | Longitude | Altitude | Speed | Heading |
|---|---|---|---|---|---|
| 2026-05-07 17:47 | 60.19547 | 11.09581 | 686 ft | 0 kts | 196° |
| 2026-05-07 18:00 | 60.19558 | 11.09587 | 686 ft | 2 kts | 196° |
| 2026-05-07 18:00 | 60.19572 | 11.09596 | 686 ft | 2 kts | 196° |
| 2026-05-07 18:00 | 60.19587 | 11.09604 | 686 ft | 2 kts | 196° |
| 2026-05-07 18:00 | 60.19601 | 11.09613 | 686 ft | 2 kts | 196° |
| 2026-05-07 18:01 | 60.19616 | 11.09621 | 685 ft | 2 kts | 196° |
| 2026-05-07 18:01 | 60.19630 | 11.09629 | 685 ft | 2 kts | 210° |
| 2026-05-07 18:01 | 60.19640 | 11.09652 | 685 ft | 2 kts | 250° |
| 2026-05-07 18:01 | 60.19642 | 11.09680 | 685 ft | 0 kts | 283° |
| 2026-05-07 18:02 | 60.19639 | 11.09695 | 686 ft | 0 kts | 287° |
| 2026-05-07 18:02 | 60.19640 | 11.09695 | 686 ft | 0 kts | 287° |
| 2026-05-07 18:06 | 60.19646 | 11.09653 | 685 ft | 6 kts | 287° |
| 2026-05-07 18:06 | 60.19668 | 11.09520 | 685 ft | 13 kts | 287° |
| 2026-05-07 18:07 | 60.19700 | 11.09290 | 685 ft | 19 kts | 284° |
| 2026-05-07 18:07 | 60.19741 | 11.08979 | 685 ft | 23 kts | 286° |
| 2026-05-07 18:07 | 60.19806 | 11.08719 | 687 ft | 17 kts | 328° |
| 2026-05-07 18:07 | 60.19913 | 11.08737 | 688 ft | 15 kts | 24° |
| 2026-05-07 18:08 | 60.20017 | 11.08811 | 688 ft | 15 kts | 15° |
| 2026-05-07 18:08 | 60.20124 | 11.08861 | 688 ft | 15 kts | 14° |
| 2026-05-07 18:08 | 60.20235 | 11.08928 | 687 ft | 18 kts | 18° |
| 2026-05-07 18:08 | 60.20380 | 11.09021 | 685 ft | 24 kts | 16° |
| 2026-05-07 18:09 | 60.20558 | 11.09126 | 685 ft | 28 kts | 20° |
| 2026-05-07 18:09 | 60.20763 | 11.09243 | 685 ft | 32 kts | 15° |
| 2026-05-07 18:09 | 60.20982 | 11.09370 | 688 ft | 33 kts | 15° |
| 2026-05-07 18:09 | 60.21210 | 11.09502 | 691 ft | 32 kts | 17° |
| 2026-05-07 18:10 | 60.21410 | 11.09613 | 696 ft | 26 kts | 15° |
| 2026-05-07 18:10 | 60.21543 | 11.09543 | 693 ft | 21 kts | 296° |
| 2026-05-07 18:10 | 60.21565 | 11.09380 | 691 ft | 6 kts | 278° |
| 2026-05-07 18:10 | 60.21572 | 11.09323 | 691 ft | 4 kts | 285° |
| 2026-05-07 18:11 | 60.21579 | 11.09250 | 691 ft | 6 kts | 278° |
| 2026-05-07 18:11 | 60.21579 | 11.09190 | 691 ft | 6 kts | 244° |
| 2026-05-07 18:11 | 60.21516 | 11.09111 | 691 ft | 10 kts | 192° |
| 2026-05-07 18:11 | 60.21411 | 11.09053 | 690 ft | 39 kts | 195° |
| 2026-05-07 18:12 | 60.20882 | 11.08755 | 686 ft | 115 kts | 197° |
| 2026-05-07 18:12 | 60.19898 | 11.08179 | 694 ft | 174 kts | 195° |
| 2026-05-07 18:12 | 60.18740 | 11.07498 | 1339 ft | 175 kts | 196° |
| 2026-05-07 18:12 | 60.17564 | 11.06778 | 2094 ft | 178 kts | 195° |
| 2026-05-07 18:13 | 60.16451 | 11.05891 | 2772 ft | 176 kts | 216° |
| 2026-05-07 18:13 | 60.15743 | 11.03805 | 3117 ft | 190 kts | 250° |
| 2026-05-07 18:13 | 60.15310 | 11.01201 | 3446 ft | 205 kts | 249° |
| 2026-05-07 18:13 | 60.14772 | 10.98431 | 3773 ft | 222 kts | 247° |
| 2026-05-07 18:14 | 60.14053 | 10.95489 | 4009 ft | 244 kts | 231° |
| 2026-05-07 18:14 | 60.12674 | 10.93399 | 4390 ft | 259 kts | 205° |
| 2026-05-07 18:14 | 60.11007 | 10.91917 | 5003 ft | 268 kts | 202° |
| 2026-05-07 18:14 | 60.09295 | 10.90441 | 5766 ft | 270 kts | 204° |
| 2026-05-07 18:15 | 60.07576 | 10.88886 | 6537 ft | 272 kts | 205° |
| 2026-05-07 18:15 | 60.05799 | 10.87617 | 7293 ft | 275 kts | 192° |
| 2026-05-07 18:15 | 60.03929 | 10.87012 | 8061 ft | 277 kts | 188° |
| 2026-05-07 18:15 | 60.02004 | 10.86525 | 8794 ft | 280 kts | 188° |
| 2026-05-07 18:16 | 60.00085 | 10.86022 | 9550 ft | 282 kts | 189° |
| 2026-05-07 18:16 | 59.98120 | 10.85468 | 10255 ft | 285 kts | 190° |
| 2026-05-07 18:16 | 59.96117 | 10.84870 | 10729 ft | 296 kts | 191° |
| 2026-05-07 18:16 | 59.94056 | 10.84227 | 11099 ft | 310 kts | 191° |
| 2026-05-07 18:17 | 59.91896 | 10.83545 | 11716 ft | 314 kts | 191° |
| 2026-05-07 18:17 | 59.89757 | 10.82869 | 12400 ft | 316 kts | 192° |
| 2026-05-07 18:17 | 59.87568 | 10.82169 | 13052 ft | 319 kts | 192° |
| 2026-05-07 18:17 | 59.85357 | 10.81461 | 13684 ft | 322 kts | 192° |
| 2026-05-07 18:18 | 59.83154 | 10.80754 | 14291 ft | 325 kts | 193° |
| 2026-05-07 18:18 | 59.80914 | 10.80034 | 14877 ft | 328 kts | 193° |
| 2026-05-07 18:18 | 59.78663 | 10.79310 | 15442 ft | 331 kts | 193° |
| 2026-05-07 18:18 | 59.76378 | 10.78577 | 16007 ft | 334 kts | 193° |
| 2026-05-07 18:19 | 59.74081 | 10.77839 | 16565 ft | 337 kts | 193° |
| 2026-05-07 18:19 | 59.71758 | 10.77098 | 17105 ft | 339 kts | 193° |
| 2026-05-07 18:19 | 59.69416 | 10.76349 | 17612 ft | 343 kts | 194° |
| 2026-05-07 18:19 | 59.67038 | 10.75588 | 18120 ft | 346 kts | 194° |
| 2026-05-07 18:20 | 59.64650 | 10.74829 | 18629 ft | 348 kts | 194° |
| 2026-05-07 18:20 | 59.62241 | 10.74062 | 19106 ft | 351 kts | 194° |
| 2026-05-07 18:20 | 59.59810 | 10.73287 | 19569 ft | 354 kts | 194° |
| 2026-05-07 18:20 | 59.57396 | 10.72518 | 20009 ft | 358 kts | 194° |
| 2026-05-07 18:21 | 59.54930 | 10.71735 | 20452 ft | 360 kts | 194° |
| 2026-05-07 18:21 | 59.52448 | 10.70948 | 20899 ft | 363 kts | 194° |
| 2026-05-07 18:21 | 59.49966 | 10.70166 | 21324 ft | 366 kts | 194° |
| 2026-05-07 18:21 | 59.47426 | 10.69365 | 21769 ft | 368 kts | 195° |
| 2026-05-07 18:22 | 59.44899 | 10.68570 | 22185 ft | 371 kts | 194° |
| 2026-05-07 18:22 | 59.43196 | 10.68034 | 22468 ft | 372 kts | 195° |
| 2026-05-07 18:22 | 59.39780 | 10.66960 | 23012 ft | 375 kts | 195° |
| 2026-05-07 18:22 | 59.37201 | 10.66151 | 23392 ft | 378 kts | 195° |
| 2026-05-07 18:23 | 59.34592 | 10.65335 | 23771 ft | 381 kts | 195° |
| 2026-05-07 18:23 | 59.31970 | 10.64517 | 24140 ft | 383 kts | 195° |
| 2026-05-07 18:23 | 59.29349 | 10.63698 | 24518 ft | 385 kts | 195° |
| 2026-05-07 18:23 | 59.26713 | 10.62877 | 24882 ft | 388 kts | 195° |
| 2026-05-07 18:24 | 59.24021 | 10.62041 | 25262 ft | 389 kts | 195° |
| 2026-05-07 18:24 | 59.21363 | 10.61214 | 25607 ft | 392 kts | 195° |
| 2026-05-07 18:24 | 59.18679 | 10.60379 | 25942 ft | 394 kts | 195° |
| 2026-05-07 18:24 | 59.15942 | 10.59531 | 26286 ft | 396 kts | 195° |
| 2026-05-07 18:25 | 59.13239 | 10.58696 | 26611 ft | 398 kts | 195° |
| 2026-05-07 18:25 | 59.10500 | 10.57852 | 26940 ft | 400 kts | 195° |
| 2026-05-07 18:25 | 59.07733 | 10.57002 | 27259 ft | 402 kts | 195° |
| 2026-05-07 18:25 | 59.04984 | 10.56158 | 27556 ft | 404 kts | 195° |
| 2026-05-07 18:26 | 59.02181 | 10.55295 | 27856 ft | 406 kts | 195° |
| 2026-05-07 18:26 | 58.99401 | 10.54443 | 28161 ft | 408 kts | 195° |
| 2026-05-07 18:26 | 58.96576 | 10.53576 | 28440 ft | 410 kts | 194° |
| 2026-05-07 18:26 | 58.93761 | 10.52715 | 28727 ft | 412 kts | 195° |
| 2026-05-07 18:27 | 58.90921 | 10.51850 | 29013 ft | 414 kts | 194° |
| 2026-05-07 18:27 | 58.88062 | 10.50980 | 29312 ft | 416 kts | 194° |
| 2026-05-07 18:27 | 58.85181 | 10.50104 | 29573 ft | 418 kts | 194° |
| 2026-05-07 18:27 | 58.83292 | 10.49531 | 29753 ft | 419 kts | 194° |
| 2026-05-07 18:28 | 58.79419 | 10.48355 | 30106 ft | 422 kts | 194° |
| 2026-05-07 18:28 | 58.76500 | 10.47471 | 30358 ft | 424 kts | 194° |
| 2026-05-07 18:28 | 58.73610 | 10.46600 | 30616 ft | 426 kts | 194° |
| 2026-05-07 18:28 | 58.70649 | 10.45709 | 30872 ft | 428 kts | 194° |
| 2026-05-07 18:29 | 58.67741 | 10.44833 | 31113 ft | 430 kts | 194° |
| 2026-05-07 18:29 | 58.64779 | 10.43943 | 31369 ft | 431 kts | 194° |
| 2026-05-07 18:29 | 58.61800 | 10.43048 | 31591 ft | 433 kts | 194° |
| 2026-05-07 18:29 | 58.58814 | 10.42355 | 31814 ft | 438 kts | 190° |
| 2026-05-07 18:30 | 58.55763 | 10.41933 | 32053 ft | 440 kts | 188° |
| 2026-05-07 18:30 | 58.52699 | 10.41570 | 32273 ft | 442 kts | 188° |
| 2026-05-07 18:30 | 58.49624 | 10.41205 | 32498 ft | 444 kts | 188° |
| 2026-05-07 18:30 | 58.46498 | 10.40817 | 32713 ft | 445 kts | 188° |
| 2026-05-07 18:31 | 58.43435 | 10.40424 | 32912 ft | 447 kts | 188° |
| 2026-05-07 18:31 | 58.40336 | 10.40021 | 33127 ft | 448 kts | 188° |
| 2026-05-07 18:31 | 58.37222 | 10.39612 | 33408 ft | 448 kts | 188° |
| 2026-05-07 18:31 | 58.34081 | 10.39198 | 33685 ft | 448 kts | 188° |
| 2026-05-07 18:32 | 58.31000 | 10.38789 | 33915 ft | 449 kts | 188° |
| 2026-05-07 18:32 | 58.27866 | 10.38370 | 34124 ft | 450 kts | 188° |
| 2026-05-07 18:32 | 58.24728 | 10.37952 | 34330 ft | 451 kts | 188° |
| 2026-05-07 18:32 | 58.21604 | 10.37537 | 34538 ft | 452 kts | 188° |
| 2026-05-07 18:33 | 58.18478 | 10.37119 | 34743 ft | 453 kts | 188° |
| 2026-05-07 18:33 | 58.15320 | 10.36701 | 34937 ft | 454 kts | 188° |
| 2026-05-07 18:33 | 58.12129 | 10.36283 | 35092 ft | 455 kts | 188° |
| 2026-05-07 18:34 | 58.05814 | 10.35449 | 35124 ft | 455 kts | 188° |
| 2026-05-07 18:34 | 57.99519 | 10.34621 | 35127 ft | 455 kts | 187° |
| 2026-05-07 18:35 | 57.93185 | 10.33793 | 35128 ft | 455 kts | 186° |
| 2026-05-07 18:35 | 57.86873 | 10.32970 | 35128 ft | 455 kts | 186° |
| 2026-05-07 18:36 | 57.80587 | 10.32151 | 35128 ft | 455 kts | 186° |
| 2026-05-07 18:36 | 57.74223 | 10.31325 | 35128 ft | 455 kts | 186° |
| 2026-05-07 18:37 | 57.67955 | 10.30515 | 35129 ft | 455 kts | 186° |
| 2026-05-07 18:37 | 57.61632 | 10.29701 | 35129 ft | 455 kts | 186° |
| 2026-05-07 18:38 | 57.55284 | 10.28885 | 35129 ft | 456 kts | 185° |
| 2026-05-07 18:38 | 57.48967 | 10.28080 | 35130 ft | 457 kts | 185° |
| 2026-05-07 18:39 | 57.42601 | 10.27268 | 35130 ft | 457 kts | 185° |
| 2026-05-07 18:39 | 57.36286 | 10.26469 | 35129 ft | 456 kts | 185° |
| 2026-05-07 18:40 | 57.29967 | 10.25668 | 35131 ft | 455 kts | 185° |
| 2026-05-07 18:40 | 57.23662 | 10.24873 | 35131 ft | 455 kts | 185° |
| 2026-05-07 18:41 | 57.17355 | 10.24079 | 35131 ft | 455 kts | 185° |
| 2026-05-07 18:41 | 57.11020 | 10.23284 | 35131 ft | 455 kts | 185° |
| 2026-05-07 18:42 | 57.04695 | 10.22494 | 35134 ft | 455 kts | 185° |
| 2026-05-07 18:42 | 56.98364 | 10.21709 | 35132 ft | 454 kts | 184° |
| 2026-05-07 18:43 | 56.92088 | 10.20932 | 35130 ft | 453 kts | 184° |
| 2026-05-07 18:43 | 56.85782 | 10.20155 | 35130 ft | 453 kts | 184° |
| 2026-05-07 18:44 | 56.79504 | 10.19382 | 35130 ft | 454 kts | 184° |
| 2026-05-07 18:44 | 56.73198 | 10.18605 | 35129 ft | 455 kts | 184° |
| 2026-05-07 18:45 | 56.66911 | 10.17835 | 35130 ft | 455 kts | 184° |
| 2026-05-07 18:45 | 56.60571 | 10.17065 | 35130 ft | 455 kts | 184° |
| 2026-05-07 18:46 | 56.54273 | 10.16299 | 35127 ft | 454 kts | 184° |
| 2026-05-07 18:46 | 56.47955 | 10.15536 | 35127 ft | 455 kts | 184° |
| 2026-05-07 18:47 | 56.41622 | 10.14774 | 35127 ft | 456 kts | 184° |
| 2026-05-07 18:47 | 56.35281 | 10.14010 | 35126 ft | 456 kts | 184° |
| 2026-05-07 18:48 | 56.28971 | 10.13251 | 35125 ft | 456 kts | 184° |
| 2026-05-07 18:48 | 56.22632 | 10.12494 | 35124 ft | 455 kts | 184° |
| 2026-05-07 18:49 | 56.16301 | 10.11743 | 35125 ft | 455 kts | 184° |
| 2026-05-07 18:49 | 56.09961 | 10.10992 | 35124 ft | 456 kts | 184° |
| 2026-05-07 18:50 | 56.03629 | 10.10244 | 35124 ft | 456 kts | 184° |
| 2026-05-07 18:50 | 56.00475 | 10.09871 | 34947 ft | 457 kts | 184° |
| 2026-05-07 18:50 | 55.97286 | 10.09494 | 34703 ft | 457 kts | 184° |
| 2026-05-07 18:50 | 55.94129 | 10.09122 | 34443 ft | 457 kts | 184° |
| 2026-05-07 18:51 | 55.90935 | 10.08746 | 34184 ft | 455 kts | 183° |
| 2026-05-07 18:51 | 55.87799 | 10.08378 | 33803 ft | 449 kts | 183° |
| 2026-05-07 18:51 | 55.84714 | 10.08016 | 33416 ft | 442 kts | 183° |
| 2026-05-07 18:51 | 55.81664 | 10.07659 | 33015 ft | 436 kts | 183° |
| 2026-05-07 18:52 | 55.78646 | 10.07308 | 32787 ft | 435 kts | 183° |
| 2026-05-07 18:52 | 55.75593 | 10.06954 | 32637 ft | 436 kts | 183° |
| 2026-05-07 18:52 | 55.72555 | 10.06601 | 32515 ft | 436 kts | 183° |
| 2026-05-07 18:52 | 55.69505 | 10.06248 | 32408 ft | 436 kts | 183° |
| 2026-05-07 18:53 | 55.66494 | 10.05898 | 32317 ft | 436 kts | 183° |
| 2026-05-07 18:53 | 55.60436 | 10.05198 | 32159 ft | 437 kts | 183° |
| 2026-05-07 18:54 | 55.54395 | 10.04501 | 32041 ft | 437 kts | 183° |
| 2026-05-07 18:54 | 55.48304 | 10.03798 | 31970 ft | 437 kts | 183° |
| 2026-05-07 18:55 | 55.42244 | 10.03105 | 31951 ft | 438 kts | 183° |
| 2026-05-07 18:55 | 55.36173 | 10.02410 | 31971 ft | 438 kts | 182° |
| 2026-05-07 18:56 | 55.30069 | 10.01715 | 32017 ft | 437 kts | 182° |
| 2026-05-07 18:56 | 55.23997 | 10.01027 | 32071 ft | 437 kts | 182° |
| 2026-05-07 18:57 | 55.17942 | 10.00342 | 32148 ft | 437 kts | 182° |
| 2026-05-07 18:57 | 55.11934 | 9.99662 | 31930 ft | 430 kts | 182° |
| 2026-05-07 18:57 | 55.08949 | 9.99328 | 31244 ft | 432 kts | 182° |
| 2026-05-07 18:58 | 55.05954 | 9.98994 | 30412 ft | 436 kts | 182° |
| 2026-05-07 18:58 | 55.02945 | 9.98657 | 29789 ft | 437 kts | 182° |
| 2026-05-07 18:58 | 54.99887 | 9.98315 | 29292 ft | 439 kts | 183° |
| 2026-05-07 18:58 | 54.96875 | 9.97978 | 29129 ft | 439 kts | 183° |
| 2026-05-07 18:59 | 54.93814 | 9.97635 | 29129 ft | 441 kts | 183° |
| 2026-05-07 18:59 | 54.87683 | 9.96950 | 29137 ft | 441 kts | 183° |
| 2026-05-07 18:59 | 54.84663 | 9.96614 | 29019 ft | 436 kts | 183° |
| 2026-05-07 19:00 | 54.81622 | 9.96209 | 28437 ft | 439 kts | 185° |
| 2026-05-07 19:00 | 54.78589 | 9.95466 | 27694 ft | 443 kts | 189° |
| 2026-05-07 19:00 | 54.75577 | 9.94491 | 26960 ft | 444 kts | 190° |
| 2026-05-07 19:00 | 54.72544 | 9.93491 | 26224 ft | 445 kts | 191° |
| 2026-05-07 19:01 | 54.69514 | 9.92495 | 25488 ft | 446 kts | 191° |
| 2026-05-07 19:01 | 54.66465 | 9.91499 | 24751 ft | 447 kts | 191° |
| 2026-05-07 19:01 | 54.63380 | 9.90500 | 24017 ft | 449 kts | 191° |
| 2026-05-07 19:01 | 54.60341 | 9.89526 | 23301 ft | 451 kts | 191° |
| 2026-05-07 19:02 | 54.57271 | 9.88545 | 22586 ft | 451 kts | 191° |
| 2026-05-07 19:02 | 54.54147 | 9.87550 | 21859 ft | 453 kts | 191° |
| 2026-05-07 19:02 | 54.51036 | 9.87050 | 21118 ft | 455 kts | 177° |
| 2026-05-07 19:02 | 54.47966 | 9.88324 | 20377 ft | 457 kts | 158° |
| 2026-05-07 19:03 | 54.45109 | 9.90679 | 19695 ft | 459 kts | 154° |
| 2026-05-07 19:03 | 54.42239 | 9.93094 | 18990 ft | 457 kts | 154° |
| 2026-05-07 19:03 | 54.39429 | 9.95435 | 18376 ft | 452 kts | 154° |
| 2026-05-07 19:03 | 54.36608 | 9.97760 | 17786 ft | 448 kts | 155° |
| 2026-05-07 19:04 | 54.33786 | 10.00067 | 17211 ft | 444 kts | 155° |
| 2026-05-07 19:04 | 54.31038 | 10.02301 | 16674 ft | 442 kts | 154° |
| 2026-05-07 19:04 | 54.28292 | 10.04526 | 16017 ft | 437 kts | 154° |
| 2026-05-07 19:04 | 54.25564 | 10.06731 | 15313 ft | 432 kts | 154° |
| 2026-05-07 19:05 | 54.22864 | 10.08910 | 14604 ft | 428 kts | 154° |
| 2026-05-07 19:05 | 54.20209 | 10.11050 | 13950 ft | 415 kts | 154° |
| 2026-05-07 19:05 | 54.17656 | 10.13105 | 13275 ft | 393 kts | 154° |
| 2026-05-07 19:05 | 54.15265 | 10.15026 | 12596 ft | 374 kts | 154° |
| 2026-05-07 19:06 | 54.12965 | 10.16873 | 11917 ft | 357 kts | 154° |
| 2026-05-07 19:06 | 54.08684 | 10.20303 | 11039 ft | 320 kts | 154° |
| 2026-05-07 19:06 | 54.06697 | 10.21894 | 10789 ft | 315 kts | 154° |
| 2026-05-07 19:07 | 54.04726 | 10.23470 | 10537 ft | 313 kts | 153° |
| 2026-05-07 19:07 | 54.02784 | 10.25022 | 10286 ft | 312 kts | 154° |
| 2026-05-07 19:07 | 54.00805 | 10.26600 | 10037 ft | 311 kts | 154° |
| 2026-05-07 19:07 | 53.98858 | 10.28077 | 9909 ft | 311 kts | 157° |
| 2026-05-07 19:08 | 53.96782 | 10.29234 | 9784 ft | 311 kts | 164° |
| 2026-05-07 19:08 | 53.94673 | 10.30021 | 9657 ft | 311 kts | 167° |
| 2026-05-07 19:08 | 53.92548 | 10.30722 | 9524 ft | 310 kts | 168° |
| 2026-05-07 19:08 | 53.90438 | 10.31406 | 9400 ft | 309 kts | 168° |
| 2026-05-07 19:09 | 53.88305 | 10.32100 | 9271 ft | 308 kts | 168° |
| 2026-05-07 19:09 | 53.86223 | 10.32782 | 9147 ft | 307 kts | 168° |
| 2026-05-07 19:09 | 53.84118 | 10.33474 | 9004 ft | 305 kts | 167° |
| 2026-05-07 19:09 | 53.82068 | 10.34148 | 8803 ft | 295 kts | 167° |
| 2026-05-07 19:10 | 53.80102 | 10.34795 | 8619 ft | 286 kts | 167° |
| 2026-05-07 19:10 | 53.78175 | 10.35430 | 8435 ft | 276 kts | 167° |
| 2026-05-07 19:10 | 53.76306 | 10.36044 | 8254 ft | 267 kts | 167° |
| 2026-05-07 19:10 | 53.74522 | 10.36632 | 8072 ft | 259 kts | 167° |
| 2026-05-07 19:11 | 53.72789 | 10.37166 | 7897 ft | 251 kts | 172° |
| 2026-05-07 19:11 | 53.71083 | 10.36735 | 7586 ft | 251 kts | 206° |
| 2026-05-07 19:11 | 53.69772 | 10.34873 | 7256 ft | 250 kts | 231° |
| 2026-05-07 19:11 | 53.68711 | 10.32576 | 6929 ft | 249 kts | 231° |
| 2026-05-07 19:12 | 53.67644 | 10.30281 | 6586 ft | 249 kts | 231° |
| 2026-05-07 19:12 | 53.66555 | 10.27993 | 6246 ft | 248 kts | 230° |
| 2026-05-07 19:12 | 53.65484 | 10.25779 | 5924 ft | 247 kts | 230° |
| 2026-05-07 19:12 | 53.64396 | 10.23550 | 5582 ft | 246 kts | 229° |
| 2026-05-07 19:13 | 53.63314 | 10.21342 | 5235 ft | 245 kts | 229° |
| 2026-05-07 19:13 | 53.62239 | 10.19153 | 4986 ft | 243 kts | 229° |
| 2026-05-07 19:13 | 53.61160 | 10.16959 | 4975 ft | 245 kts | 229° |
| 2026-05-07 19:13 | 53.60062 | 10.14728 | 4964 ft | 246 kts | 229° |
| 2026-05-07 19:14 | 53.58973 | 10.12517 | 4970 ft | 246 kts | 229° |
| 2026-05-07 19:14 | 53.57890 | 10.10320 | 4975 ft | 246 kts | 229° |
| 2026-05-07 19:14 | 53.56786 | 10.08082 | 4975 ft | 247 kts | 229° |
| 2026-05-07 19:14 | 53.55687 | 10.05855 | 4978 ft | 247 kts | 229° |
| 2026-05-07 19:15 | 53.54596 | 10.03646 | 4962 ft | 244 kts | 229° |
| 2026-05-07 19:15 | 53.53527 | 10.01481 | 4692 ft | 243 kts | 229° |
| 2026-05-07 19:15 | 53.52447 | 9.99299 | 4338 ft | 244 kts | 229° |
| 2026-05-07 19:15 | 53.51352 | 9.97089 | 4043 ft | 242 kts | 229° |
| 2026-05-07 19:16 | 53.50277 | 9.94922 | 3982 ft | 243 kts | 228° |
| 2026-05-07 19:16 | 53.49199 | 9.92751 | 3981 ft | 244 kts | 229° |
| 2026-05-07 19:16 | 53.48112 | 9.90565 | 3982 ft | 244 kts | 229° |
| 2026-05-07 19:16 | 53.47035 | 9.88399 | 3981 ft | 243 kts | 229° |
| 2026-05-07 19:17 | 53.45948 | 9.86214 | 3981 ft | 243 kts | 229° |
| 2026-05-07 19:17 | 53.44864 | 9.84033 | 3982 ft | 243 kts | 229° |
| 2026-05-07 19:17 | 53.43780 | 9.81858 | 3979 ft | 238 kts | 229° |
| 2026-05-07 19:17 | 53.42730 | 9.79752 | 3648 ft | 240 kts | 228° |
| 2026-05-07 19:18 | 53.41654 | 9.77596 | 3299 ft | 242 kts | 228° |
| 2026-05-07 19:18 | 53.40577 | 9.75441 | 3036 ft | 239 kts | 228° |
| 2026-05-07 19:18 | 53.39547 | 9.73365 | 2961 ft | 226 kts | 231° |
| 2026-05-07 19:18 | 53.38909 | 9.71040 | 2938 ft | 221 kts | 265° |
| 2026-05-07 19:19 | 53.39140 | 9.68535 | 2966 ft | 218 kts | 301° |
| 2026-05-07 19:19 | 53.40131 | 9.66729 | 2966 ft | 211 kts | 336° |
| 2026-05-07 19:19 | 53.41523 | 9.66221 | 2968 ft | 202 kts | 11° |
| 2026-05-07 19:19 | 53.42874 | 9.66762 | 2986 ft | 200 kts | 22° |
| 2026-05-07 19:20 | 53.44201 | 9.67533 | 2968 ft | 200 kts | 24° |
| 2026-05-07 19:20 | 53.45496 | 9.68331 | 2971 ft | 200 kts | 24° |
| 2026-05-07 19:20 | 53.46753 | 9.69291 | 2981 ft | 198 kts | 32° |
| 2026-05-07 19:20 | 53.47952 | 9.70430 | 2974 ft | 197 kts | 33° |
| 2026-05-07 19:21 | 53.49107 | 9.71633 | 2958 ft | 196 kts | 39° |
| 2026-05-07 19:21 | 53.50149 | 9.73109 | 2971 ft | 196 kts | 47° |
| 2026-05-07 19:21 | 53.51104 | 9.74754 | 2973 ft | 192 kts | 50° |
| 2026-05-07 19:21 | 53.51953 | 9.76329 | 2950 ft | 177 kts | 52° |
| 2026-05-07 19:22 | 53.52743 | 9.77883 | 2839 ft | 175 kts | 53° |
| 2026-05-07 19:22 | 53.53514 | 9.79445 | 2631 ft | 172 kts | 53° |
| 2026-05-07 19:22 | 53.54278 | 9.81006 | 2467 ft | 173 kts | 53° |
| 2026-05-07 19:22 | 53.55029 | 9.82545 | 2208 ft | 172 kts | 53° |
| 2026-05-07 19:23 | 53.55793 | 9.84105 | 1957 ft | 171 kts | 53° |
| 2026-05-07 19:23 | 53.56541 | 9.85629 | 1716 ft | 170 kts | 53° |
| 2026-05-07 19:23 | 53.57294 | 9.87163 | 1482 ft | 170 kts | 52° |
| 2026-05-07 19:23 | 53.58043 | 9.88686 | 1259 ft | 164 kts | 52° |
| 2026-05-07 19:24 | 53.58743 | 9.90107 | 1050 ft | 151 kts | 52° |
| 2026-05-07 19:24 | 53.59391 | 9.91424 | 841 ft | 140 kts | 52° |
| 2026-05-07 19:24 | 53.59983 | 9.92627 | 662 ft | 132 kts | 52° |
| 2026-05-07 19:24 | 53.60562 | 9.93803 | 498 ft | 130 kts | 51° |
| 2026-05-07 19:25 | 53.61140 | 9.94999 | 346 ft | 130 kts | 51° |
| 2026-05-07 19:25 | 53.61718 | 9.96161 | 152 ft | 130 kts | 51° |
| 2026-05-07 19:25 | 53.62294 | 9.97323 | 35 ft | 129 kts | 50° |
| 2026-05-07 19:25 | 53.62789 | 9.98336 | 37 ft | 87 kts | 50° |
| 2026-05-07 19:26 | 53.63070 | 9.98913 | 36 ft | 47 kts | 48° |
| 2026-05-07 19:26 | 53.63263 | 9.99304 | 32 ft | 39 kts | 52° |
| 2026-05-07 19:26 | 53.63282 | 9.99599 | 31 ft | 11 kts | 97° |
| 2026-05-07 19:26 | 53.63277 | 9.99651 | 31 ft | 0 kts | 100° |
| 2026-05-07 19:27 | 53.63276 | 9.99666 | 31 ft | 3 kts | 101° |
| 2026-05-07 19:27 | 53.63249 | 9.99737 | 30 ft | 12 kts | 148° |
| 2026-05-07 19:28 | 53.63127 | 9.99863 | 29 ft | 22 kts | 121° |
| 2026-05-07 19:28 | 53.63179 | 10.00047 | 32 ft | 17 kts | 50° |
| 2026-05-07 19:28 | 53.63239 | 10.00192 | 37 ft | 12 kts | 80° |
| 2026-05-07 19:28 | 53.63245 | 10.00317 | 41 ft | 7 kts | 86° |
| 2026-05-07 19:29 | 53.63246 | 10.00343 | 42 ft | 0 kts | 85° |